Aeroporto :
LOGIN :

Iscrizione | Disclaimer

   EN    FR    IT 

 










Sommario :    VFR   VFR Marginale   IFR   IFR Intensivo   IFR Molto Intensivo
Visibilità : 
Base nubi : 
>= 8 km
>= 3000ft
5 / 8 km
1000 / 3000 ft
1500m / 5 km
500 / 1000 ft
800 / 1500m
200 / 500 ft
< 800m
< 200 ft
Simboli :   Temporali  Nebbia  Neve Forte  Precipitazioni Forti  Vento > 20 kt
SIGMETs :   Varie  Temporali  Ghiacco  Turbolenza  Onda orograficha  Ceneri Vulcaniche






- Altitudine del aeroporto : 499 ft
- Codice IATA : TLS


LFBO - Toulouse / Blagnac

ULTIMO METAR :
  • 181730Z AUTO 11010KT CAVOK 25/14 Q1011 NOSIG

METARs OBSOLETI :
  • 181700Z AUTO 13014KT CAVOK 26/14 Q1012 TEMPO 23020G33KT TSRA BKN070CB
  • 181630Z AUTO 12013KT 080V150 CAVOK 26/13 Q1012 TEMPO 23020G33KT TSRA BKN070CB
  • 181600Z AUTO 12013KT 090V180 CAVOK 27/14 Q1012 TEMPO 23020G33KT TSRA BKN070CB
  • 181530Z AUTO 13012KT 080V150 CAVOK 27/16 Q1012 TEMPO 23020G33KT TSRA BKN070CB

TAF TAF LFBO
Valido dal 18 a 18 ore il 20 a 00 ore UTC


181700Z 1818/1924 13012KT CAVOK
PROB30
TEMPO 1903/1906 BKN013
BECMG 1911/1913 SCT090TCU
PROB40
TEMPO 1917/1921 27020KT TSRA BKN060CB SCT075TCU
ATIS : +33 5 62 74 66 36



MetMap, La meteo Aeronautica in un colpo d'occhio ! - Copyright ORBIFLY Dicembre 2007 - Disclaimer

ORBIFLY MET'MAP TEAM :

Programmazione e sviluppo : Alexandra Zaïnal
Concezione : Baudouin d'Aumeries
Aiuto per la programmazione : Marc-Olivier Méhu
Supporto tecnico e logistico : Manuel Goepfert
Aiuto per la traduzione : Arnaldo La Scala

Contatto : metmap@orbifly.com




FONTI E CREDITI :

   NOAA